Time;durP1;ratioP1;P1;durP2;ratioP2;P2;SDS_P1;SDS_P2;PMS_P1;PMS_P2;Temp;Humidity;BMP_temperature;BMP_pressure;BME280_temperature;BME280_humidity;BME280_pressure;Samples;Min_cycle;Max_cycle;Signal;HPM_P1;HPM_P2
2021/11/05 00:01:45;;;;;;;0.50;0.50;;;24.10;38.50;;;;;;1819569;79;21529;-11
2021/11/05 00:04:14;;;;;;;1.15;0.50;;;24.20;38.10;;;;;;1819511;79;21150;-11
2021/11/05 00:06:41;;;;;;;0.53;0.50;;;24.10;37.90;;;;;;1819471;79;21593;-11
2021/11/05 00:09:09;;;;;;;0.50;0.50;;;24.10;37.80;;;;;;1823042;79;21114;-11
2021/11/05 00:11:37;;;;;;;0.45;0.40;;;24.10;37.50;;;;;;1819594;79;21556;-11
2021/11/05 00:14:04;;;;;;;0.40;0.40;;;24.10;37.40;;;;;;1819598;78;21039;-11
2021/11/05 00:16:31;;;;;;;0.78;0.70;;;24.10;37.40;;;;;;1822971;79;21151;-11
2021/11/05 00:18:59;;;;;;;0.53;0.53;;;24.00;38.00;;;;;;1819559;79;21055;-11
2021/11/05 00:21:26;;;;;;;0.50;0.40;;;24.00;37.80;;;;;;1819495;79;21092;-11
2021/11/05 00:23:53;;;;;;;0.40;0.40;;;24.00;37.70;;;;;;1822946;77;21577;-11
2021/11/05 00:26:21;;;;;;;0.28;0.28;;;24.00;37.80;;;;;;1819539;79;21055;-11
2021/11/05 00:28:48;;;;;;;5.28;0.98;;;24.00;38.00;;;;;;1819515;79;21488;-11
2021/11/05 00:31:16;;;;;;;0.75;0.50;;;24.00;38.20;;;;;;1822955;79;21078;-11
2021/11/05 00:33:44;;;;;;;0.68;0.37;;;24.00;38.40;;;;;;1819512;79;21150;-11
2021/11/05 00:36:14;;;;;;;0.53;0.40;;;24.00;38.20;;;;;;1819502;79;21059;-11
2021/11/05 00:38:45;;;;;;;0.42;0.30;;;23.90;38.30;;;;;;1823005;79;21559;-11
2021/11/05 00:41:14;;;;;;;0.68;0.50;;;23.90;38.20;;;;;;1819629;79;21150;-11
2021/11/05 00:43:43;;;;;;;0.40;0.30;;;23.90;38.70;;;;;;1819567;78;21145;-11
2021/11/05 00:46:11;;;;;;;0.50;0.40;;;23.90;38.70;;;;;;1819773;79;21552;-11
2021/11/05 00:48:39;;;;;;;0.50;0.50;;;23.90;38.50;;;;;;1850207;77;21138;-11
2021/11/05 00:51:07;;;;;;;1.12;0.40;;;23.80;38.30;;;;;;1850055;77;21044;-11
2021/11/05 00:53:34;;;;;;;0.55;0.45;;;23.90;38.60;;;;;;1850114;77;21590;-11
2021/11/05 00:56:02;;;;;;;0.42;0.42;;;23.90;38.80;;;;;;1850131;77;21068;-11
2021/11/05 00:58:29;;;;;;;0.35;0.35;;;23.90;38.60;;;;;;1850154;77;21600;-11
2021/11/05 01:00:57;;;;;;;0.37;0.30;;;23.90;38.50;;;;;;1850136;77;21117;-11
2021/11/05 01:03:24;;;;;;;0.50;0.50;;;23.90;38.50;;;;;;1850126;77;21144;-11
2021/11/05 01:05:52;;;;;;;0.20;0.20;;;23.90;39.00;;;;;;1850234;77;21536;-11
2021/11/05 01:08:19;;;;;;;0.68;0.42;;;23.90;38.90;;;;;;1850135;77;21047;-11
2021/11/05 01:10:48;;;;;;;1.55;0.50;;;23.90;38.80;;;;;;1850105;77;21066;-11
2021/11/05 01:13:15;;;;;;;0.50;0.50;;;23.90;38.60;;;;;;1850145;77;21051;-11
2021/11/05 01:15:42;;;;;;;0.45;0.40;;;23.90;38.60;;;;;;1850099;77;21129;-11
2021/11/05 01:18:10;;;;;;;0.70;0.40;;;23.90;39.10;;;;;;1850154;77;21563;-11
2021/11/05 01:20:39;;;;;;;0.70;0.35;;;23.90;39.70;;;;;;1850184;77;21059;-11
2021/11/05 01:23:08;;;;;;;1.05;0.40;;;23.80;39.00;;;;;;1850193;77;21535;-11
2021/11/05 01:25:35;;;;;;;0.30;0.30;;;23.90;38.90;;;;;;1850093;76;21648;-11
2021/11/05 01:28:03;;;;;;;0.40;0.33;;;23.90;38.80;;;;;;1850118;77;21078;-11
2021/11/05 01:30:30;;;;;;;0.40;0.40;;;23.90;39.20;;;;;;1850064;77;21533;-11
2021/11/05 01:33:06;;;;;;;1.95;0.50;;;23.90;39.30;;;;;;1850194;77;21074;-11
2021/11/05 01:35:29;;;;;;;0.37;0.30;;;23.90;39.00;;;;;;1848198;77;21075;-11
2021/11/05 01:37:57;;;;;;;0.40;0.40;;;23.90;39.00;;;;;;1850309;77;21065;-11
2021/11/05 01:40:24;;;;;;;0.50;0.40;;;23.90;39.00;;;;;;1850097;77;21525;-11
2021/11/05 01:42:51;;;;;;;1.05;0.40;;;23.90;39.20;;;;;;1850076;77;21083;-11
2021/11/05 01:45:19;;;;;;;0.35;0.30;;;23.80;39.40;;;;;;1850147;77;21162;-11
2021/11/05 01:47:47;;;;;;;0.30;0.30;;;23.90;39.20;;;;;;1850147;77;21572;-11
2021/11/05 01:50:14;;;;;;;0.60;0.20;;;23.90;39.00;;;;;;1850093;77;21066;-11
2021/11/05 01:52:42;;;;;;;0.33;0.25;;;23.90;39.00;;;;;;1850087;77;21536;-11
2021/11/05 01:55:11;;;;;;;0.30;0.30;;;23.90;39.20;;;;;;1850118;77;21607;-11
2021/11/05 01:57:39;;;;;;;0.42;0.33;;;23.90;39.30;;;;;;1850090;77;21136;-11
2021/11/05 02:00:12;;;;;;;0.35;0.30;;;23.90;39.10;;;;;;1850118;77;21059;-11
2021/11/05 02:02:39;;;;;;;0.40;0.30;;;23.90;38.90;;;;;;1849813;77;21053;-11
2021/11/05 02:05:07;;;;;;;0.30;0.30;;;23.90;38.90;;;;;;1850112;77;21137;-10
2021/11/05 02:07:37;;;;;;;0.37;0.30;;;23.80;39.20;;;;;;1850095;77;21145;-10
2021/11/05 02:10:07;;;;;;;0.50;0.40;;;23.90;39.10;;;;;;1850049;77;21071;-10
2021/11/05 02:12:35;;;;;;;0.30;0.30;;;23.90;39.00;;;;;;1850166;77;21137;-10
2021/11/05 02:15:04;;;;;;;0.50;0.40;;;23.90;38.90;;;;;;1850088;77;21133;-10
2021/11/05 02:17:31;;;;;;;0.75;0.37;;;23.90;39.00;;;;;;1850122;77;21603;-10
2021/11/05 02:20:00;;;;;;;0.40;0.40;;;23.90;39.20;;;;;;1850135;77;21540;-10
2021/11/05 02:22:27;;;;;;;0.90;0.50;;;23.90;39.20;;;;;;1850076;77;21547;-10
2021/11/05 02:24:55;;;;;;;0.57;0.40;;;23.80;38.90;;;;;;1850128;76;21275;-10
2021/11/05 02:27:22;;;;;;;1.05;0.37;;;23.80;38.90;;;;;;1850085;77;21090;-10
2021/11/05 02:29:50;;;;;;;0.62;0.50;;;23.80;38.80;;;;;;1850051;77;21157;-10
2021/11/05 02:32:17;;;;;;;0.62;0.33;;;23.80;39.00;;;;;;1850082;77;21144;-10
2021/11/05 02:34:46;;;;;;;1.05;0.40;;;23.80;39.10;;;;;;1850089;77;21536;-10
2021/11/05 02:37:13;;;;;;;0.45;0.37;;;23.80;38.90;;;;;;1850043;77;21082;-10
2021/11/05 02:39:41;;;;;;;0.25;0.25;;;23.80;38.80;;;;;;1850080;77;21602;-10
2021/11/05 02:42:08;;;;;;;0.50;0.50;;;23.80;38.70;;;;;;1850135;77;21521;-11
2021/11/05 02:44:36;;;;;;;0.30;0.30;;;23.80;39.20;;;;;;1850126;77;21563;-10
2021/11/05 02:47:16;;;;;;;0.72;0.42;;;23.80;39.20;;;;;;1849974;77;21161;-11
2021/11/05 02:49:44;;;;;;;0.60;0.40;;;23.80;38.80;;;;;;1846775;77;21064;-10
2021/11/05 02:52:13;;;;;;;0.65;0.40;;;23.80;38.70;;;;;;1850378;77;21572;-10
2021/11/05 02:54:41;;;;;;;0.62;0.40;;;23.80;38.70;;;;;;1850177;77;21179;-10
2021/11/05 02:57:08;;;;;;;0.62;0.42;;;23.70;38.90;;;;;;1850237;77;21613;-10
2021/11/05 02:59:36;;;;;;;1.55;0.40;;;23.70;39.00;;;;;;1850188;77;21586;-10
2021/11/05 03:02:05;;;;;;;0.33;0.30;;;23.70;38.70;;;;;;1850183;77;21056;-10
2021/11/05 03:04:33;;;;;;;0.23;0.23;;;23.70;38.60;;;;;;1850144;77;21060;-10
2021/11/05 03:07:06;;;;;;;0.40;0.30;;;23.70;38.80;;;;;;1850237;77;21575;-10
2021/11/05 03:09:37;;;;;;;0.98;0.50;;;23.70;39.20;;;;;;1850184;77;21075;-10
2021/11/05 03:12:05;;;;;;;;;;;23.70;39.20;;;;;;1852651;77;21051;-10
2021/11/05 03:14:32;;;;;;;0.57;0.37;;;23.60;39.30;;;;;;1850184;77;20180;-10
2021/11/05 03:17:00;;;;;;;0.33;0.28;;;23.50;39.50;;;;;;1850093;77;21991;-10
2021/11/05 03:19:29;;;;;;;0.30;0.30;;;23.60;39.20;;;;;;1850231;77;21520;-10
2021/11/05 03:21:56;;;;;;;0.68;0.57;;;23.70;39.50;;;;;;1850221;77;21593;-10
2021/11/05 03:24:24;;;;;;;0.60;0.40;;;23.70;39.50;;;;;;1850117;76;21107;-10
2021/11/05 03:26:51;;;;;;;0.30;0.30;;;23.70;39.20;;;;;;1850170;77;21056;-10
2021/11/05 03:29:19;;;;;;;0.17;0.17;;;23.70;39.20;;;;;;1850158;77;21545;-10
2021/11/05 03:31:46;;;;;;;0.35;0.35;;;23.70;39.30;;;;;;1850216;77;21594;-10
2021/11/05 03:34:14;;;;;;;0.30;0.30;;;23.70;40.20;;;;;;1850158;77;21043;-10
2021/11/05 03:36:41;;;;;;;0.75;0.30;;;23.70;39.50;;;;;;1850176;77;21154;-10
2021/11/05 03:39:09;;;;;;;0.35;0.35;;;23.70;39.30;;;;;;1850158;77;21129;-10
2021/11/05 03:41:36;;;;;;;0.60;0.40;;;23.70;39.20;;;;;;1850162;77;21500;-10
2021/11/05 03:44:04;;;;;;;0.20;0.20;;;23.70;39.20;;;;;;1850065;77;21082;-10
2021/11/05 03:46:34;;;;;;;0.45;0.40;;;23.70;39.50;;;;;;1850289;77;21547;-10
2021/11/05 03:49:02;;;;;;;0.57;0.42;;;23.70;39.50;;;;;;1849945;77;21129;-10
2021/11/05 03:51:30;;;;;;;0.30;0.30;;;23.70;39.30;;;;;;1850193;77;21536;-10
2021/11/05 03:53:57;;;;;;;0.30;0.20;;;23.70;39.30;;;;;;1850167;77;21594;-10
2021/11/05 03:56:25;;;;;;;0.50;0.42;;;23.70;39.30;;;;;;1850153;77;21079;-10
2021/11/05 03:58:53;;;;;;;0.90;0.30;;;23.70;39.70;;;;;;1850203;77;21154;-10
2021/11/05 04:01:20;;;;;;;0.33;0.30;;;23.70;39.70;;;;;;1850224;77;21621;-10
2021/11/05 04:03:51;;;;;;;1.17;0.30;;;23.70;39.30;;;;;;1850125;77;21192;-10
2021/11/05 04:06:20;;;;;;;0.40;0.20;;;23.70;39.20;;;;;;1850541;77;21536;-10
2021/11/05 04:08:47;;;;;;;1.25;0.57;;;23.70;39.20;;;;;;1850090;77;21071;-10
2021/11/05 04:11:16;;;;;;;0.30;0.30;;;23.70;39.60;;;;;;1850087;77;21603;-10
2021/11/05 04:13:43;;;;;;;1.17;0.28;;;23.70;39.50;;;;;;1850138;77;21056;-10
2021/11/05 04:16:11;;;;;;;1.37;0.20;;;23.70;39.20;;;;;;1850114;77;21110;-10
2021/11/05 04:18:41;;;;;;;0.25;0.20;;;23.70;39.10;;;;;;1850135;77;21133;-10
2021/11/05 04:21:09;;;;;;;0.57;0.30;;;23.70;39.00;;;;;;1850412;77;21121;-10
2021/11/05 04:23:36;;;;;;;0.42;0.30;;;23.70;39.50;;;;;;1850158;77;21044;-10
2021/11/05 04:26:04;;;;;;;0.50;0.30;;;23.70;39.50;;;;;;1850185;76;21114;-10
2021/11/05 04:28:33;;;;;;;0.78;0.20;;;23.70;39.00;;;;;;1850188;77;21531;-10
2021/11/05 04:31:01;;;;;;;0.20;0.20;;;23.70;38.80;;;;;;1850188;77;21583;-12
2021/11/05 04:33:31;;;;;;;0.55;0.40;;;23.60;38.80;;;;;;1850167;77;21047;-10
2021/11/05 04:35:58;;;;;;;0.20;0.20;;;23.70;39.10;;;;;;1849877;77;21144;-10
2021/11/05 04:38:26;;;;;;;0.20;0.20;;;23.60;39.20;;;;;;1850123;77;21555;-10
2021/11/05 04:40:54;;;;;;;0.20;0.20;;;23.60;38.80;;;;;;1850118;77;21133;-10
2021/11/05 04:43:22;;;;;;;0.70;0.30;;;23.60;38.80;;;;;;1850233;77;21508;-10
2021/11/05 04:45:49;;;;;;;0.40;0.30;;;23.60;38.80;;;;;;1850132;77;21465;-10
2021/11/05 04:48:16;;;;;;;0.68;0.30;;;23.60;39.20;;;;;;1850095;77;21575;-10
2021/11/05 04:50:45;;;;;;;0.28;0.20;;;23.60;39.20;;;;;;1850286;77;21075;-10
2021/11/05 04:53:13;;;;;;;0.55;0.20;;;23.60;39.10;;;;;;1850266;77;21149;-12
2021/11/05 04:55:40;;;;;;;0.70;0.20;;;23.60;39.10;;;;;;1850410;77;21084;-10
2021/11/05 04:58:08;;;;;;;0.50;0.40;;;23.60;39.00;;;;;;1850331;77;21051;-10
2021/11/05 05:00:36;;;;;;;0.50;0.35;;;23.60;39.40;;;;;;1850357;77;21583;-10
2021/11/05 05:03:03;;;;;;;0.20;0.20;;;23.60;39.20;;;;;;1850388;77;21078;-10
2021/11/05 05:05:31;;;;;;;0.72;0.30;;;23.60;39.20;;;;;;1850317;77;21237;-10
2021/11/05 05:07:59;;;;;;;0.20;0.20;;;23.60;39.00;;;;;;1850320;77;21513;-10
2021/11/05 05:10:27;;;;;;;0.30;0.30;;;23.60;38.90;;;;;;1850371;77;21556;-10
2021/11/05 05:12:55;;;;;;;0.40;0.30;;;23.60;39.00;;;;;;1850439;77;21557;-10
2021/11/05 05:15:23;;;;;;;0.30;0.30;;;23.60;39.30;;;;;;1850306;77;21508;-10
2021/11/05 05:17:51;;;;;;;0.28;0.28;;;23.60;39.10;;;;;;1850335;77;21224;-10
2021/11/05 05:20:19;;;;;;;0.37;0.37;;;23.60;38.90;;;;;;1850307;77;21590;-10
2021/11/05 05:22:46;;;;;;;0.47;0.30;;;23.60;38.90;;;;;;1850390;77;21615;-10
2021/11/05 05:25:14;;;;;;;0.82;0.45;;;23.60;39.30;;;;;;1850285;76;21106;-10
2021/11/05 05:27:43;;;;;;;0.30;0.30;;;23.60;39.40;;;;;;1850439;77;21580;-10
2021/11/05 05:30:12;;;;;;;0.20;0.20;;;23.60;39.10;;;;;;1850393;77;21913;-10
2021/11/05 05:32:41;;;;;;;0.25;0.25;;;23.60;38.90;;;;;;1850308;77;21078;-10
2021/11/05 05:35:09;;;;;;;0.53;0.30;;;23.60;38.80;;;;;;1850408;77;21146;-10
2021/11/05 05:37:37;;;;;;;0.20;0.20;;;23.60;39.20;;;;;;1850380;77;21228;-10
2021/11/05 05:40:05;;;;;;;0.37;0.28;;;23.60;39.20;;;;;;1850383;77;21594;-10
2021/11/05 05:42:32;;;;;;;0.20;0.20;;;23.60;38.90;;;;;;1850302;77;21148;-10
2021/11/05 05:45:00;;;;;;;0.37;0.30;;;23.60;38.90;;;;;;1850358;77;21092;-10
2021/11/05 05:47:28;;;;;;;0.20;0.20;;;23.60;39.00;;;;;;1850314;77;21091;-10
2021/11/05 05:49:55;;;;;;;0.20;0.20;;;23.60;39.20;;;;;;1860034;77;21614;-10
2021/11/05 05:52:23;;;;;;;0.50;0.30;;;23.60;39.90;;;;;;1862545;77;21149;-10
2021/11/05 05:54:50;;;;;;;0.88;0.40;;;23.60;39.20;;;;;;1862620;77;21125;-10
2021/11/05 05:57:18;;;;;;;0.55;0.28;;;23.60;39.00;;;;;;1862335;77;21531;-10
2021/11/05 05:59:45;;;;;;;0.37;0.37;;;23.60;39.00;;;;;;1862342;77;21137;-10
2021/11/05 06:02:12;;;;;;;0.75;0.40;;;23.60;39.50;;;;;;1862295;77;21120;-10
2021/11/05 06:04:40;;;;;;;0.62;0.30;;;23.60;39.50;;;;;;1862349;77;21082;-10
2021/11/05 06:07:07;;;;;;;0.55;0.30;;;23.60;39.30;;;;;;1862343;77;21488;-10
2021/11/05 06:09:35;;;;;;;0.95;0.40;;;23.60;39.10;;;;;;1862338;77;21031;-10
2021/11/05 06:12:03;;;;;;;0.50;0.42;;;23.60;39.20;;;;;;1862315;77;21074;-10
2021/11/05 06:14:30;;;;;;;0.37;0.30;;;23.60;39.40;;;;;;1862339;77;21132;-10
2021/11/05 06:16:58;;;;;;;0.40;0.30;;;23.60;39.40;;;;;;1862415;77;21477;-10
2021/11/05 06:19:26;;;;;;;0.37;0.23;;;23.60;39.20;;;;;;1862386;77;21583;-10
2021/11/05 06:21:54;;;;;;;0.20;0.20;;;23.60;39.10;;;;;;1862365;77;21067;-10
2021/11/05 06:24:22;;;;;;;0.28;0.28;;;23.60;39.00;;;;;;1862303;76;21708;-10
2021/11/05 06:26:51;;;;;;;0.47;0.47;;;23.60;39.40;;;;;;1862342;77;21539;-9
2021/11/05 06:29:18;;;;;;;0.30;0.20;;;23.60;39.40;;;;;;1862292;77;21552;-10
2021/11/05 06:31:46;;;;;;;0.20;0.20;;;23.70;39.30;;;;;;1862354;77;21626;-10
2021/11/05 06:34:13;;;;;;;0.33;0.30;;;23.70;39.10;;;;;;1862385;77;21531;-10
2021/11/05 06:36:41;;;;;;;0.50;0.40;;;23.70;39.00;;;;;;1862370;77;21676;-10
2021/11/05 06:39:08;;;;;;;0.35;0.35;;;23.70;39.20;;;;;;1862394;77;21532;-10
2021/11/05 06:41:35;;;;;;;0.25;0.25;;;23.70;39.30;;;;;;1862289;77;21511;-9
2021/11/05 06:44:03;;;;;;;0.30;0.30;;;23.70;39.10;;;;;;1862216;77;21055;-9
2021/11/05 06:46:31;;;;;;;0.20;0.20;;;23.70;38.90;;;;;;1862260;77;21106;-10
2021/11/05 06:48:58;;;;;;;0.30;0.30;;;23.70;39.10;;;;;;1862167;76;21160;-10
2021/11/05 06:51:27;;;;;;;0.40;0.40;;;23.70;39.20;;;;;;1862213;77;21062;-10
2021/11/05 06:53:56;;;;;;;0.65;0.37;;;23.70;39.50;;;;;;1862327;77;21125;-10
2021/11/05 06:56:23;;;;;;;0.78;0.28;;;23.70;39.30;;;;;;1862194;77;21489;-10
2021/11/05 06:58:56;;;;;;;0.75;0.33;;;23.70;39.10;;;;;;1862299;77;21590;-10
2021/11/05 07:01:23;;;;;;;0.40;0.30;;;23.70;39.10;;;;;;1862185;77;21054;-10
2021/11/05 07:03:51;;;;;;;0.35;0.30;;;23.70;39.40;;;;;;1862295;77;21082;-10
2021/11/05 07:06:19;;;;;;;0.62;0.40;;;23.70;39.60;;;;;;1862233;77;21520;-10
2021/11/05 07:08:46;;;;;;;0.72;0.30;;;23.70;39.30;;;;;;1862263;77;21543;-10
2021/11/05 07:11:14;;;;;;;0.45;0.30;;;23.70;39.00;;;;;;1862288;77;21582;-10
2021/11/05 07:13:41;;;;;;;0.40;0.40;;;23.70;38.90;;;;;;1862371;77;21582;-10
2021/11/05 07:16:10;;;;;;;0.33;0.33;;;23.70;39.40;;;;;;1862238;77;21074;-10
2021/11/05 07:18:37;;;;;;;0.50;0.37;;;23.70;39.40;;;;;;1862252;77;21519;-10
2021/11/05 07:21:05;;;;;;;0.28;0.25;;;23.70;39.10;;;;;;1862225;77;21547;-10
2021/11/05 07:23:33;;;;;;;1.30;0.50;;;23.70;38.90;;;;;;1862161;77;21082;-10
2021/11/05 07:26:02;;;;;;;1.20;0.25;;;23.70;38.90;;;;;;1862147;76;21071;-10
2021/11/05 07:28:30;;;;;;;0.30;0.30;;;23.70;39.10;;;;;;1862255;77;21148;-10
2021/11/05 07:30:58;;;;;;;0.40;0.20;;;23.70;39.20;;;;;;1862226;77;21610;-10
2021/11/05 07:33:25;;;;;;;0.30;0.23;;;23.70;39.10;;;;;;1862283;77;21544;-9
2021/11/05 07:35:53;;;;;;;0.35;0.30;;;23.70;39.00;;;;;;1862222;77;21133;-10
2021/11/05 07:38:20;;;;;;;0.30;0.30;;;23.70;39.00;;;;;;1862260;76;21058;-10
2021/11/05 07:40:48;;;;;;;0.50;0.40;;;23.70;39.40;;;;;;1862467;77;21542;-10
2021/11/05 07:43:15;;;;;;;0.47;0.23;;;23.70;39.50;;;;;;1862370;77;21613;-10
2021/11/05 07:45:43;;;;;;;0.60;0.40;;;23.70;39.30;;;;;;1862413;77;21071;-9
2021/11/05 07:48:10;;;;;;;0.95;0.47;;;23.70;39.60;;;;;;1862349;77;21071;-10
2021/11/05 07:50:38;;;;;;;0.82;0.40;;;23.80;39.40;;;;;;1854095;77;21551;-10
2021/11/05 07:53:06;;;;;;;0.37;0.30;;;23.80;39.70;;;;;;1850079;77;21527;-10
2021/11/05 07:55:33;;;;;;;0.40;0.25;;;23.80;39.70;;;;;;1850120;77;21539;-10
2021/11/05 07:58:01;;;;;;;0.50;0.37;;;23.80;39.70;;;;;;1850157;77;21832;-10
2021/11/05 08:00:28;;;;;;;0.42;0.30;;;23.80;39.60;;;;;;1850114;77;21032;-10
2021/11/05 08:02:56;;;;;;;0.30;0.30;;;23.80;39.70;;;;;;1850103;77;21513;-10
2021/11/05 08:05:23;;;;;;;0.40;0.40;;;23.80;40.00;;;;;;1850039;77;21585;-10
2021/11/05 08:07:51;;;;;;;0.42;0.30;;;23.80;40.10;;;;;;1850161;77;21528;-10
2021/11/05 08:10:22;;;;;;;0.57;0.40;;;23.90;40.00;;;;;;1850144;77;21079;-10
2021/11/05 08:12:51;;;;;;;0.60;0.40;;;23.90;39.90;;;;;;1848921;77;21078;-10
2021/11/05 08:15:21;;;;;;;0.30;0.30;;;23.90;40.00;;;;;;1850298;77;21129;-10
2021/11/05 08:17:50;;;;;;;0.82;0.50;;;23.90;40.10;;;;;;1850001;77;21601;-10
2021/11/05 08:20:17;;;;;;;0.45;0.45;;;23.90;40.20;;;;;;1850223;77;21501;-10
2021/11/05 08:22:45;;;;;;;0.30;0.30;;;23.90;39.90;;;;;;1850115;77;21532;-10
2021/11/05 08:25:13;;;;;;;0.30;0.30;;;23.90;39.80;;;;;;1850135;76;21571;-10
2021/11/05 08:27:40;;;;;;;0.50;0.40;;;23.90;39.70;;;;;;1850058;77;21130;-10
2021/11/05 08:30:11;;;;;;;0.40;0.35;;;23.90;40.10;;;;;;1850069;77;21051;-10
2021/11/05 08:32:40;;;;;;;0.72;0.30;;;23.90;40.10;;;;;;1850152;77;21505;-10
2021/11/05 08:35:08;;;;;;;1.40;0.50;;;23.90;39.80;;;;;;1850137;77;21524;-10
2021/11/05 08:37:35;;;;;;;0.60;0.50;;;23.90;39.70;;;;;;1850089;77;21533;-10
2021/11/05 08:40:04;;;;;;;0.80;0.35;;;23.90;39.70;;;;;;1850047;76;21078;-10
2021/11/05 08:42:31;;;;;;;0.70;0.35;;;23.90;40.00;;;;;;1850110;77;21684;-10
2021/11/05 08:44:59;;;;;;;0.40;0.37;;;23.90;40.20;;;;;;1850072;77;21606;-10
2021/11/05 08:47:27;;;;;;;0.28;0.28;;;23.90;40.00;;;;;;1850054;77;21079;-10
2021/11/05 08:49:54;;;;;;;1.40;0.60;;;23.90;40.00;;;;;;1850003;77;21548;-11
2021/11/05 08:52:22;;;;;;;1.42;0.30;;;23.90;40.20;;;;;;1850206;77;21079;-10
2021/11/05 08:54:49;;;;;;;0.40;0.30;;;23.80;40.20;;;;;;1850279;77;21528;-10
2021/11/05 08:57:17;;;;;;;0.30;0.30;;;23.80;41.00;;;;;;1850266;77;21591;-10
2021/11/05 08:59:44;;;;;;;0.80;0.42;;;23.80;40.40;;;;;;1850158;77;21497;-10
2021/11/05 09:02:12;;;;;;;0.75;0.30;;;23.80;40.50;;;;;;1850310;77;21634;-10
2021/11/05 09:04:39;;;;;;;0.82;0.50;;;23.80;40.60;;;;;;1850317;77;21092;-10
2021/11/05 09:07:07;;;;;;;0.70;0.47;;;23.90;40.80;;;;;;1850276;77;21052;-10
2021/11/05 09:09:35;;;;;;;0.98;0.70;;;23.90;40.90;;;;;;1850277;77;21477;-10
2021/11/05 09:12:03;;;;;;;0.85;0.60;;;23.90;40.80;;;;;;1850174;77;21528;-10
2021/11/05 09:14:30;;;;;;;0.82;0.57;;;23.90;40.90;;;;;;1850196;77;21469;-10
2021/11/05 09:16:57;;;;;;;0.70;0.47;;;23.90;40.80;;;;;;1850197;77;21063;-10
2021/11/05 09:19:26;;;;;;;0.55;0.50;;;23.90;41.10;;;;;;1850212;77;21109;-10
2021/11/05 09:21:54;;;;;;;1.37;0.70;;;23.90;41.10;;;;;;1850279;77;21504;-10
2021/11/05 09:24:22;;;;;;;0.78;0.55;;;23.90;41.00;;;;;;1850249;76;21734;-10
2021/11/05 09:26:49;;;;;;;0.70;0.40;;;23.90;40.90;;;;;;1850236;77;21133;-10
2021/11/05 09:29:18;;;;;;;0.93;0.60;;;23.90;40.90;;;;;;1850235;77;21172;-10
2021/11/05 09:31:46;;;;;;;0.80;0.37;;;23.90;41.00;;;;;;1850206;77;21079;-10
2021/11/05 09:34:13;;;;;;;1.57;0.70;;;23.90;41.10;;;;;;1850314;77;21537;-10
2021/11/05 09:36:41;;;;;;;0.40;0.37;;;23.90;40.90;;;;;;1850279;77;21083;-10
2021/11/05 09:39:08;;;;;;;0.40;0.40;;;24.00;40.90;;;;;;1850279;77;21107;-10
2021/11/05 09:41:36;;;;;;;1.15;0.50;;;24.00;40.80;;;;;;1850262;77;21063;-10
2021/11/05 09:44:03;;;;;;;0.50;0.45;;;24.00;41.10;;;;;;1850197;77;21124;-10
2021/11/05 09:46:31;;;;;;;1.00;0.47;;;24.00;41.20;;;;;;1850278;77;21591;-10
2021/11/05 09:48:58;;;;;;;0.60;0.60;;;24.00;40.90;;;;;;1850237;77;21121;-10
2021/11/05 09:51:26;;;;;;;0.35;0.35;;;24.00;40.80;;;;;;1859495;77;21099;-10
2021/11/05 09:53:53;;;;;;;0.80;0.50;;;24.00;40.80;;;;;;1865171;77;21082;-10
2021/11/05 09:56:21;;;;;;;0.88;0.40;;;24.00;41.20;;;;;;1865156;76;21149;-10
2021/11/05 09:58:49;;;;;;;1.05;0.33;;;24.00;41.10;;;;;;1865236;77;21078;-10
2021/11/05 10:01:17;;;;;;;0.20;0.20;;;24.00;41.60;;;;;;1865112;77;21066;-10
2021/11/05 10:03:44;;;;;;;0.55;0.25;;;24.00;40.90;;;;;;1865234;77;21524;-10
2021/11/05 10:06:16;;;;;;;0.37;0.30;;;24.00;41.00;;;;;;1865211;77;21173;-10
2021/11/05 10:08:42;;;;;;;1.10;0.45;;;24.00;41.20;;;;;;1864915;77;21196;-10
2021/11/05 10:11:31;;;;;;;0.50;0.50;;;24.10;41.30;;;;;;1865223;77;21520;-12
2021/11/05 10:14:01;;;;;;;0.20;0.20;;;24.10;41.10;;;;;;1865252;77;21598;-10
2021/11/05 10:16:29;;;;;;;0.50;0.35;;;24.10;41.10;;;;;;1865138;77;21117;-10
2021/11/05 10:19:05;;;;;;;0.20;0.20;;;24.10;41.30;;;;;;1865335;77;21496;-10
2021/11/05 10:21:43;;;;;;;1.85;0.45;;;24.10;41.30;;;;;;1864608;77;21511;-10
2021/11/05 10:24:17;;;;;;;0.28;0.25;;;24.10;41.30;;;;;;1865270;76;21078;-10
2021/11/05 10:26:45;;;;;;;0.30;0.30;;;24.10;41.20;;;;;;1865196;77;21043;-10
2021/11/05 10:29:27;;;;;;;0.45;0.37;;;24.10;41.00;;;;;;1865297;77;21539;-10
2021/11/05 10:32:08;;;;;;;0.55;0.33;;;24.10;41.00;;;;;;1865107;77;21062;-10
2021/11/05 10:34:56;;;;;;;0.55;0.40;;;24.10;41.30;;;;;;1865278;77;21039;-10
2021/11/05 10:37:29;;;;;;;0.40;0.37;;;24.10;41.40;;;;;;1865211;77;21085;-10
2021/11/05 10:39:57;;;;;;;0.62;0.40;;;24.10;42.00;;;;;;1864502;77;21042;-10
2021/11/05 10:42:38;;;;;;;0.47;0.30;;;24.10;41.20;;;;;;1865167;77;21543;-10
2021/11/05 10:45:23;;;;;;;0.75;0.40;;;24.10;41.10;;;;;;1865329;77;21023;-10
2021/11/05 10:47:58;;;;;;;0.70;0.40;;;24.10;41.50;;;;;;1865134;77;21121;-10
2021/11/05 10:50:28;;;;;;;0.53;0.30;;;24.10;41.40;;;;;;1864770;77;21043;-11
2021/11/05 10:53:07;;;;;;;0.78;0.40;;;24.10;41.10;;;;;;1850167;77;21032;-10
2021/11/05 10:56:00;;;;;;;0.80;0.40;;;24.20;41.00;;;;;;1848332;77;21048;-10
2021/11/05 10:58:35;;;;;;;0.50;0.40;;;24.10;40.80;;;;;;1850201;77;21524;-10
2021/11/05 11:01:15;;;;;;;0.45;0.30;;;24.20;41.20;;;;;;1850194;77;21105;-11
2021/11/05 11:03:47;;;;;;;0.62;0.30;;;24.10;41.20;;;;;;1849866;77;21656;-11
2021/11/05 11:06:20;;;;;;;0.60;0.23;;;24.20;41.00;;;;;;1850196;77;21020;-11
2021/11/05 11:08:49;;;;;;;0.45;0.37;;;24.20;40.90;;;;;;1850187;77;21024;-11
2021/11/05 11:11:19;;;;;;;0.20;0.20;;;24.30;40.90;;;;;;1850167;77;21044;-11
2021/11/05 11:13:51;;;;;;;1.27;0.40;;;24.30;40.90;;;;;;1850283;77;21117;-11
2021/11/05 11:16:21;;;;;;;0.23;0.23;;;24.30;40.90;;;;;;1850361;77;21539;-11
2021/11/05 11:18:51;;;;;;;0.20;0.20;;;24.30;40.70;;;;;;1850417;76;21111;-11
2021/11/05 11:21:18;;;;;;;0.62;0.28;;;24.40;40.60;;;;;;1850354;77;21048;-11
2021/11/05 11:23:46;;;;;;;0.40;0.30;;;24.40;40.40;;;;;;1850356;77;21507;-11
2021/11/05 11:26:15;;;;;;;0.45;0.20;;;24.40;40.70;;;;;;1850242;76;21489;-11
2021/11/05 11:28:42;;;;;;;0.20;0.20;;;24.40;40.70;;;;;;1850329;77;21184;-11
2021/11/05 11:31:12;;;;;;;0.55;0.30;;;24.40;40.50;;;;;;1850380;77;21551;-11
2021/11/05 11:33:41;;;;;;;0.20;0.20;;;24.40;40.50;;;;;;1850146;77;21185;-11
2021/11/05 11:36:10;;;;;;;1.12;0.45;;;24.40;40.50;;;;;;1850321;76;21536;-11
2021/11/05 11:38:38;;;;;;;0.47;0.45;;;24.50;40.90;;;;;;1850217;77;21082;-11
2021/11/05 11:41:10;;;;;;;0.35;0.30;;;24.50;41.00;;;;;;1850298;76;21082;-11
2021/11/05 11:43:37;;;;;;;;;;;24.50;40.90;;;;;;1853111;77;21532;-11
2021/11/05 11:46:04;;;;;;;0.28;0.28;;;24.40;41.00;;;;;;1850324;77;20150;-11
2021/11/05 11:48:52;;;;;;;0.65;0.35;;;24.30;41.20;;;;;;1850285;77;21632;-11
2021/11/05 11:51:25;;;;;;;1.00;0.50;;;24.40;41.30;;;;;;1853024;77;21098;-10
2021/11/05 11:53:55;;;;;;;0.30;0.30;;;24.40;41.40;;;;;;1865215;77;21094;-10
2021/11/05 11:56:27;;;;;;;0.88;0.30;;;24.40;41.20;;;;;;1864843;77;21094;-10
2021/11/05 11:59:00;;;;;;;0.13;0.13;;;24.40;41.20;;;;;;1865221;77;21121;-10
2021/11/05 12:01:29;;;;;;;0.90;0.40;;;24.40;41.10;;;;;;1865240;77;21079;-10
2021/11/05 12:04:03;;;;;;;0.75;0.50;;;24.40;41.60;;;;;;1865348;77;21500;-12
2021/11/05 12:06:52;;;;;;;0.70;0.30;;;24.50;41.30;;;;;;1864719;77;21070;-10
2021/11/05 12:09:34;;;;;;;0.25;0.25;;;24.40;41.10;;;;;;1865130;77;21111;-10
2021/11/05 12:12:23;;;;;;;0.37;0.20;;;24.40;40.90;;;;;;1865369;77;21132;-10
2021/11/05 12:15:02;;;;;;;0.20;0.20;;;24.40;40.70;;;;;;1861160;77;21145;-10
2021/11/05 12:17:48;;;;;;;0.20;0.20;;;24.30;41.00;;;;;;1861502;77;21523;-10
2021/11/05 12:20:39;;;;;;;0.30;0.20;;;24.30;41.00;;;;;;1865315;77;21496;-10
2021/11/05 12:23:13;;;;;;;0.62;0.30;;;24.40;40.70;;;;;;1865207;77;21047;-10
2021/11/05 12:25:56;;;;;;;0.40;0.30;;;24.30;40.60;;;;;;1865289;76;21172;-10
2021/11/05 12:28:33;;;;;;;0.53;0.30;;;24.30;40.70;;;;;;1864545;77;21070;-10
2021/11/05 12:31:23;;;;;;;0.33;0.25;;;24.30;40.90;;;;;;1864297;77;21144;-10
2021/11/05 12:33:52;;;;;;;0.42;0.30;;;24.30;40.90;;;;;;1865340;77;21641;-10
2021/11/05 12:36:19;;;;;;;0.30;0.30;;;24.30;40.80;;;;;;1865252;77;21539;-10
2021/11/05 12:39:02;;;;;;;0.30;0.30;;;24.30;40.70;;;;;;1865258;77;21038;-10
2021/11/05 12:41:30;;;;;;;0.53;0.30;;;24.40;40.80;;;;;;1865250;77;21054;-11
2021/11/05 12:44:12;;;;;;;0.62;0.45;;;24.40;41.30;;;;;;1865338;77;21493;-11
2021/11/05 12:46:47;;;;;;;0.28;0.20;;;24.40;41.30;;;;;;1863909;77;21059;-11
2021/11/05 12:49:21;;;;;;;0.20;0.20;;;24.40;41.20;;;;;;1865236;77;21043;-11
2021/11/05 12:51:51;;;;;;;0.30;0.30;;;24.40;41.00;;;;;;1864580;77;21548;-11
2021/11/05 12:54:26;;;;;;;0.65;0.37;;;24.40;40.90;;;;;;1862556;77;21066;-11
2021/11/05 12:56:56;;;;;;;0.88;0.47;;;24.40;41.30;;;;;;1862587;77;21047;-11
2021/11/05 12:59:28;;;;;;;0.45;0.35;;;24.30;41.20;;;;;;1862491;77;21051;-10